Bob Sikes Airport
KCEW : rendu visible

Aérodrome :











RETROUVEZ-NOUS SUR...

 
LOGIN :

S'inscrire | Disclaimer

   EN    FR    IT 

 









Légende :    VFR   VFR Marginal   IFR   IFR Intensif   IFR Très Intensif
Visi : 
Plafond : 
>= 8 km
>= 3000ft
5 à 8 km
1000 à 3000 ft
1500m à 5 km
500 à 1000 ft
800 à 1500m
200 à 500 ft
< 800m
< 200 ft
Symboles :   Orages  Brouillard  Fortes neiges  Fortes précipitations  Vent > 20 kt






- Altitude de l'aérodrome : 213 ft


KCEW - Bob Sikes

DERNIER METAR :
  • 132353Z AUTO 00000KT 10SM FEW050 BKN090 OVC110 26/23 A2992 RMK AO2 RAE11 SLP130 P0000 60012 T02610233 10344 20256 51007

METARs EXPIRÉS :
  • 132304Z AUTO VRB03KT 10SM -RA SCT023 BKN047 26/22 A2993 RMK AO2 LTG DSNT N P0000 T02560217
  • 132253Z AUTO 27006KT 9SM VCTS -RA SCT025 BKN048 BKN110 27/23 A2992 RMK AO2 LTG DSNT N AND NW RAB36 TSE10B36E51 SLP130 P0001 T02670228
  • 132242Z AUTO 27006KT 10SM -TSRA BKN048 BKN090 BKN110 27/23 A2993 RMK AO2 LTG DSNT W-N RAB36 TSE10B36 P0000 T02720233
  • 132216Z AUTO 23004KT 10SM VCTS FEW075 SCT095 27/22 A2991 RMK AO2 LTG DSNT W AND NW TSE10 T02720217
  • 132153Z AUTO 17005KT 10SM TS FEW013 SCT048 BKN070 27/23 A2991 RMK AO2 LTG DSNT E AND W AND NW RAB13E47 TSB14E40B43 SLP126 P0011 T02670228
  • 132127Z AUTO 12011G18KT 1 1/4SM -TSRA BR BKN038 BKN050 OVC090 27/25 A2991 RMK AO2 VIS 1/4V4 LTG DSNT ALQDS RAB13 TSB14 P0008 T02720250

TAF N/A
FIR KZJX / Amérique du Nord



MET'MAP, la Météo Aéronautique d'un coup d'oeil ! - Copyright ORBIFLY Décembre 2007 - Disclaimer

ORBIFLY MET'MAP TEAM :

Programmation & Développement : Alexandra Zaïnal
Sur une idée originale de : Baudouin d'Aumeries
Assistance à la programmation : Marc-Olivier Méhu
Soutien technique & logistique : Manuel Goepfert

Contact : metmap@orbifly.com




SOURCES & CREDITS :

   NOAA       Earth
Advisory